Hathaway, MT (59333)

2:38 AM MST on February 06, 2016 (GMT -0700)
Graveyard Creek Road | | Change Station
CLOSE
Current Station
Personal Weather Station
Location: Miles City, MT
Elevation: 3028 ft
Nearby Weather Stations
Active Advisory: High Wind Warning

Elev 3028 ft 46.18 °N, 106.07 °W | Updated 6 minutes ago

Partly Cloudy
Partly Cloudy
39.0 °F
Feels Like 32 °F
N
11.4
Wind Variable Wind from WSW

Today
High -- | Low -- °F
--% Chance of Precip.
Yesterday
High -- | Low -- °F
Precip. -- in
Pressure 30.03 in
Visibility 10.0 miles
Clouds Clear
Windchill 32 °F
Dew Point 20 °F
Humidity 47%
Rainfall 0.00 in
Snow Depth Not available.
7:21 AM 5:16 PM
Waning Crescent, 6% visible
METAR KMLS 060853Z AUTO 15005KT 10SM CLR 01/M07 A2999 RMK AO2 SLP169 T00061067 58010
Pressure 30.03 in
Visibility 10.0 miles
Clouds Clear
Windchill 32 °F
Dew Point 20 °F
Humidity 47%
Rainfall 0.00 in
Snow Depth Not available.
7:21 AM 5:16 PM
Waning Crescent, 6% visible
METAR KMLS 060853Z AUTO 15005KT 10SM CLR 01/M07 A2999 RMK AO2 SLP169 T00061067 58010

10-Day Weather Forecast

Almanac

Astronomy

Feb. 06, 2016 Rise Set
Actual Time
Civil Twilight
Nautical Twilight
Astronomical Twilight
Moon
Length of Visible Light
Length of Day
Tomorrow will be .
, % of the Moon is Illuminated

Today's Extremes

State Highs State Lows

Community

WunderPhotos

Upload Photos

1,890,933 photos uploaded!

WunderBlog® & News

Nearby

Air Quality

  Air Quality AQ Index Pollutant
Not available.

Snow Depth

Station Depth Elevation

Earthquake Activity

City Distance Mag. Time & Date
Minimum magnitude displayed is 2.5.

Coastal Water Temperatures

Place Temperature

Stations

Nearby Weather Stations

Station Location Temp. Windchill Dew Point Humidity Wind Precip. Elev Updated Type
                   

Watches & Warnings

High Wind Warning
Issued: 8:40 PM MST Feb. 5, 2016 – National Weather Service

... High Wind Warning in effect from 6 am to 11 PM MST Saturday...

The National Weather Service in Billings has issued a High Wind
Warning... which is in effect from 6 am to 11 PM MST Saturday. The
high wind watch is no longer in effect.

* Impacts... dangerous cross winds could make travel hazardous for
high profile and Load carrying vehicles along Interstate
90... Interstate 94... and US Highway 12... 87 and 212.

* Timing... west to northwest winds will spread east across the
region on Saturday morning behind a cold front... and continue
through the day. Winds are expected to diminish late Saturday
evening.

* Winds... peak gusts from 60 to 70 mph are expected.

Precautionary/preparedness actions...

Winds of these magnitudes can cause property damage without extra
precautions. Motorists in high profile vehicles should use
caution until the winds subside.